Weather Data

Pearl Creek Farm: 8878 N Farm Road 75, Walnut Grove MO 65770

<== Previous Day (Wednesday 30 Aug 2017) | Next Day (Friday 01 Sep 2017) ==>

Summary Precipitation Data For Thursday 31 August 2017

ElementValueUnits
PrecipitationT
Notes(none)
SourcePearl Creek Farm

Summary Temperature Data For Thursday 31 August 2017

ElementValueUnits
High Temperature79 oF
Low Temperature63 oF
Average Temperature70 oF
High Humidity93 %
Low Humidity56 %
Average Humidity76 %
SourceSpringfield-Branson National Airport (SGF)

Detail Temperature Data For Thursday 31 August 2017

Date / TimeTemp (F)RH (%)Dew Pt (F)Report Date / TimeSource
2017-08-31 00:52:00 66 87 62.0 2017-12-29 17:00:26.17417 Springfield-Branson National Airport (SGF)
2017-08-31 01:52:00 65 90 62.0 2017-12-29 17:00:26.17417 Springfield-Branson National Airport (SGF)
2017-08-31 02:52:00 63 93 61.0 2017-12-29 17:00:26.17417 Springfield-Branson National Airport (SGF)
2017-08-31 03:52:00 63 93 61.0 2017-12-29 17:00:26.17417 Springfield-Branson National Airport (SGF)
2017-08-31 04:52:00 63 93 61.0 2017-12-29 17:00:26.17417 Springfield-Branson National Airport (SGF)
2017-08-31 05:52:00 63 93 61.0 2017-12-29 17:00:26.17417 Springfield-Branson National Airport (SGF)
2017-08-31 06:52:00 64 93 62.0 2017-12-29 17:00:26.17417 Springfield-Branson National Airport (SGF)
2017-08-31 07:52:00 69 81 63.0 2017-12-29 17:00:26.17417 Springfield-Branson National Airport (SGF)
2017-08-31 08:52:00 74 71 64.0 2017-12-29 17:00:26.17417 Springfield-Branson National Airport (SGF)
2017-08-31 09:52:00 76 64 63.0 2017-12-29 17:00:26.17417 Springfield-Branson National Airport (SGF)
2017-08-31 10:52:00 77 62 63.0 2017-12-29 17:00:26.17417 Springfield-Branson National Airport (SGF)
2017-08-31 11:52:00 77 62 63.0 2017-12-29 17:00:26.17417 Springfield-Branson National Airport (SGF)
2017-08-31 12:52:00 78 58 62.0 2017-12-29 17:00:26.17417 Springfield-Branson National Airport (SGF)
2017-08-31 13:52:00 79 58 63.0 2017-12-29 17:00:26.17417 Springfield-Branson National Airport (SGF)
2017-08-31 14:52:00 79 56 62.0 2017-12-29 17:00:26.17417 Springfield-Branson National Airport (SGF)
2017-08-31 15:52:00 79 56 62.0 2017-12-29 17:00:26.17417 Springfield-Branson National Airport (SGF)
2017-08-31 16:52:00 77 58 61.0 2017-12-29 17:00:26.17417 Springfield-Branson National Airport (SGF)
2017-08-31 17:52:00 75 62 61.0 2017-12-29 17:00:26.17417 Springfield-Branson National Airport (SGF)
2017-08-31 18:52:00 71 71 61.0 2017-12-29 17:00:26.17417 Springfield-Branson National Airport (SGF)
2017-08-31 19:52:00 68 78 61.0 2017-12-29 17:00:26.17417 Springfield-Branson National Airport (SGF)
2017-08-31 20:52:00 66 84 61.0 2017-12-29 17:00:26.17417 Springfield-Branson National Airport (SGF)
2017-08-31 21:52:00 66 84 61.0 2017-12-29 17:00:26.17417 Springfield-Branson National Airport (SGF)
2017-08-31 22:52:00 65 87 61.0 2017-12-29 17:00:26.17417 Springfield-Branson National Airport (SGF)
2017-08-31 23:52:00 65 87 61.0 2017-12-29 17:00:26.17417 Springfield-Branson National Airport (SGF)

A total of 24 rows are displayed.